Matteo Cremona.it - Pannello delle statistiche

Statistiche generali

Utenti in totale:
3955
Post in totale:
22777
Topic in totale:
21271
Categorie in totale:
3
Utenti online:
49
Maggior numero di utenti online:
144 - Ottobre 08, 2017, 10:23:49 am
Presenti oggi:
96
Media delle iscrizioni per giorno:
2.50
Media dei messaggi per giorno:
14.36
Media delle discussioni per giorno:
13.41
Sezioni totali:
7
Ultimo utente:
DanielTrak
Media delle presenze per giorno:
5.65
Rapporto maschi/femmine:
1:0

I 10 autori pił attivi

Migliori autori (per numero di topic iniziati)

Maggior tempo trascorso online

Matteo Cremona
9ore15minuti
GeorgeHarreuts
8ore28minuti
WilieTiz
4ore32minuti
RogerHix
1ore37minuti
FlorineVal
50minuti
PompeyMagni
11minuti
EugeneGlou
8minuti
DorseyHok
5minuti
momo
5minuti
SalinaQ341
5minuti

Cronologia forum (sulla base del fuso orario del server)

Sommario annuale Nuovi topic Nuovi post Nuovi iscritti Maggior numero di utenti online
* 2017 20717 22223 3939 144
Ottobre 2017 14495 15126 2477 144
Settembre 2017 4884 5086 373 70
Agosto 2017 536 1209 318 66
Luglio 2017 570 570 575 46
Giugno 2017 5 5 99 29
Maggio 2017 18 18 47 48
Aprile 2017 12 12 14 14
Marzo 2017 1 1 17 19
Febbraio 2017 116 116 7 14
Gennaio 2017 80 80 12 11
* 2016 552 552 15 23
Dicembre 2016 125 125 8 23
Novembre 2016 267 267 0 9
2016-11-01 7 7 0 5
2016-11-02 10 10 0 5
2016-11-03 11 11 0 5
2016-11-04 9 9 0 4
2016-11-05 11 11 0 2
2016-11-06 10 10 0 2
2016-11-07 11 11 0 2
2016-11-08 9 9 0 3
2016-11-09 12 12 0 2
2016-11-10 5 5 0 2
2016-11-11 10 10 0 2
2016-11-12 13 13 0 9
2016-11-13 5 5 0 2
2016-11-14 11 11 0 2
2016-11-15 15 15 0 5
2016-11-16 11 11 0 4
2016-11-17 16 16 0 2
2016-11-18 12 12 0 3
2016-11-19 12 12 0 3
2016-11-20 4 4 0 2
2016-11-21 4 4 0 3
2016-11-22 15 15 0 5
2016-11-23 11 11 0 5
2016-11-24 12 12 0 4
2016-11-25 6 6 0 3
2016-11-26 2 2 0 3
2016-11-27 0 0 0 3
2016-11-28 0 0 0 4
2016-11-29 5 5 0 4
2016-11-30 8 8 0 6
Ottobre 2016 48 48 5 5
Settembre 2016 0 0 1 3
2016-09-01 0 0 1 2
2016-09-02 0 0 0 2
2016-09-03 0 0 0 1
2016-09-04 0 0 0 1
2016-09-05 0 0 0 2
2016-09-06 0 0 0 1
2016-09-07 0 0 0 1
2016-09-08 0 0 0 1
2016-09-09 0 0 0 2
2016-09-10 0 0 0 1
2016-09-11 0 0 0 1
2016-09-12 0 0 0 3
2016-09-13 0 0 0 1
2016-09-14 0 0 0 1
2016-09-15 0 0 0 1
2016-09-16 0 0 0 2
2016-09-17 0 0 0 2
2016-09-18 0 0 0 1
2016-09-19 0 0 0 2
2016-09-20 0 0 0 3
2016-09-21 0 0 0 1
2016-09-22 0 0 0 1
2016-09-23 0 0 0 1
2016-09-25 0 0 0 1
2016-09-27 0 0 0 2
2016-09-28 0 0 0 1
2016-09-29 0 0 0 2
2016-09-30 0 0 0 1
Agosto 2016 0 0 0 3
Luglio 2016 0 0 0 3
Giugno 2016 0 0 0 3
Maggio 2016 0 0 0 3
Aprile 2016 0 0 0 4
Marzo 2016 112 112 1 6
Febbraio 2016 0 0 0 12
2016-02-01 0 0 0 1
2016-02-02 0 0 0 2
2016-02-03 0 0 0 7
2016-02-04 0 0 0 12
2016-02-05 0 0 0 1
2016-02-06 0 0 0 2
2016-02-07 0 0 0 1
2016-02-09 0 0 0 1
2016-02-10 0 0 0 3
2016-02-11 0 0 0 2
2016-02-12 0 0 0 3
2016-02-13 0 0 0 1
2016-02-14 0 0 0 1
2016-02-15 0 0 0 2
2016-02-16 0 0 0 1
2016-02-17 0 0 0 1
2016-02-18 0 0 0 2
2016-02-19 0 0 0 2
2016-02-20 0 0 0 2
2016-02-21 0 0 0 1
2016-02-22 0 0 0 1
2016-02-23 0 0 0 1
2016-02-24 0 0 0 1
2016-02-25 0 0 0 3
2016-02-26 0 0 0 1
2016-02-27 0 0 0 1
2016-02-28 0 0 0 2
2016-02-29 0 0 0 3
Gennaio 2016 0 0 0 8
* 2015 0 0 0 6
Dicembre 2015 0 0 0 3
Novembre 2015 0 0 0 5
Ottobre 2015 0 0 0 5
Settembre 2015 0 0 0 5
Agosto 2015 0 0 0 2
Luglio 2015 0 0 0 4
Giugno 2015 0 0 0 3
2015-06-01 0 0 0 1
2015-06-02 0 0 0 1
2015-06-03 0 0 0 2
2015-06-04 0 0 0 1
2015-06-06 0 0 0 2
2015-06-07 0 0 0 1
2015-06-08 0 0 0 1
2015-06-10 0 0 0 1
2015-06-11 0 0 0 1
2015-06-12 0 0 0 2
2015-06-13 0 0 0 1
2015-06-14 0 0 0 2
2015-06-15 0 0 0 1
2015-06-18 0 0 0 1
2015-06-20 0 0 0 2
2015-06-22 0 0 0 1
2015-06-23 0 0 0 1
2015-06-24 0 0 0 1
2015-06-25 0 0 0 1
2015-06-26 0 0 0 1
2015-06-27 0 0 0 1
2015-06-28 0 0 0 1
2015-06-29 0 0 0 1
2015-06-30 0 0 0 3
Maggio 2015 0 0 0 2
Aprile 2015 0 0 0 6
Marzo 2015 0 0 0 2
2015-03-03 0 0 0 2
2015-03-04 0 0 0 2
2015-03-05 0 0 0 2
2015-03-07 0 0 0 1
2015-03-08 0 0 0 2
2015-03-09 0 0 0 1
2015-03-10 0 0 0 1
2015-03-11 0 0 0 1
2015-03-12 0 0 0 1
2015-03-13 0 0 0 1
2015-03-14 0 0 0 1
2015-03-16 0 0 0 1
2015-03-17 0 0 0 1
2015-03-18 0 0 0 1
2015-03-19 0 0 0 1
2015-03-20 0 0 0 1
2015-03-21 0 0 0 1
2015-03-22 0 0 0 1
2015-03-23 0 0 0 1
2015-03-24 0 0 0 2
2015-03-26 0 0 0 1
2015-03-27 0 0 0 1
2015-03-28 0 0 0 1
2015-03-29 0 0 0 1
2015-03-30 0 0 0 1
2015-03-31 0 0 0 1
Febbraio 2015 0 0 0 3
Gennaio 2015 0 0 0 3
2015-01-01 0 0 0 1
2015-01-02 0 0 0 1
2015-01-03 0 0 0 1
2015-01-04 0 0 0 2
2015-01-05 0 0 0 1
2015-01-07 0 0 0 1
2015-01-08 0 0 0 2
2015-01-09 0 0 0 1
2015-01-10 0 0 0 1
2015-01-11 0 0 0 1
2015-01-13 0 0 0 1
2015-01-14 0 0 0 1
2015-01-15 0 0 0 1
2015-01-16 0 0 0 1
2015-01-17 0 0 0 1
2015-01-18 0 0 0 1
2015-01-19 0 0 0 1
2015-01-20 0 0 0 1
2015-01-21 0 0 0 1
2015-01-22 0 0 0 1
2015-01-23 0 0 0 3
2015-01-24 0 0 0 1
2015-01-25 0 0 0 2
2015-01-26 0 0 0 2
2015-01-27 0 0 0 1
2015-01-28 0 0 0 1
2015-01-30 0 0 0 1
2015-01-31 0 0 0 1
* 2014 0 0 0 4
Dicembre 2014 0 0 0 2
2014-12-01 0 0 0 1
2014-12-02 0 0 0 1
2014-12-03 0 0 0 1
2014-12-04 0 0 0 1
2014-12-05 0 0 0 1
2014-12-08 0 0 0 1
2014-12-09 0 0 0 1
2014-12-10 0 0 0 1
2014-12-13 0 0 0 1
2014-12-14 0 0 0 1
2014-12-15 0 0 0 2
2014-12-16 0 0 0 1
2014-12-17 0 0 0 1
2014-12-18 0 0 0 1
2014-12-19 0 0 0 1
2014-12-20 0 0 0 1
2014-12-21 0 0 0 1
2014-12-22 0 0 0 1
2014-12-24 0 0 0 1
2014-12-25 0 0 0 1
2014-12-26 0 0 0 1
2014-12-27 0 0 0 1
2014-12-30 0 0 0 1
Novembre 2014 0 0 0 3
Ottobre 2014 0 0 0 4
Settembre 2014 0 0 0 4
2014-09-01 0 0 0 1
2014-09-03 0 0 0 2
2014-09-04 0 0 0 1
2014-09-05 0 0 0 1
2014-09-07 0 0 0 1
2014-09-08 0 0 0 3
2014-09-10 0 0 0 1
2014-09-11 0 0 0 4
2014-09-12 0 0 0 1
2014-09-14 0 0 0 1
2014-09-15 0 0 0 3
2014-09-16 0 0 0 2
2014-09-19 0 0 0 1
2014-09-20 0 0 0 1
2014-09-21 0 0 0 1
2014-09-23 0 0 0 1
2014-09-24 0 0 0 1
2014-09-26 0 0 0 3
2014-09-27 0 0 0 1
2014-09-28 0 0 0 1
Agosto 2014 0 0 0 3
Luglio 2014 0 0 0 3
Giugno 2014 0 0 0 3
Maggio 2014 0 0 0 4
Aprile 2014 0 0 0 3
Marzo 2014 0 0 0 3
Febbraio 2014 0 0 0 2
Gennaio 2014 0 0 0 4
* 2013 19 19 13 3
Dicembre 2013 0 0 0 3
Novembre 2013 0 0 0 2
Ottobre 2013 0 0 0 2
Settembre 2013 0 0 0 2
2013-09-02 0 0 0 1
2013-09-03 0 0 0 1
2013-09-04 0 0 0 1
2013-09-05 0 0 0 1
2013-09-06 0 0 0 1
2013-09-07 0 0 0 1
2013-09-08 0 0 0 1
2013-09-10 0 0 0 2
2013-09-11 0 0 0 1
2013-09-12 0 0 0 1
2013-09-13 0 0 0 1
2013-09-15 0 0 0 1
2013-09-16 0 0 0 2
2013-09-17 0 0 0 1
2013-09-18 0 0 0 1
2013-09-21 0 0 0 1
2013-09-22 0 0 0 1
2013-09-23 0 0 0 1
2013-09-24 0 0 0 1
2013-09-25 0 0 0 2
2013-09-27 0 0 0 1
2013-09-29 0 0 0 1
2013-09-30 0 0 0 1
Agosto 2013 0 0 0 2
Luglio 2013 15 15 7 3
Giugno 2013 4 4 6 3